sensor_id;sensor_type;location;lat;lon;timestamp;pressure;altitude;pressure_sealevel;temperature;humidity
70314;BME280;57725;47.526;18.986;2023-03-25T00:01:43;98887.38;;;14.99;90.67
70314;BME280;57725;47.526;18.986;2023-03-25T00:04:08;98880.44;;;14.98;91.06
70314;BME280;57725;47.526;18.986;2023-03-25T00:06:33;98891.91;;;14.97;91.00
70314;BME280;57725;47.526;18.986;2023-03-25T00:08:59;98889.50;;;14.94;90.95
70314;BME280;57725;47.526;18.986;2023-03-25T00:11:26;98892.13;;;14.94;91.16
70314;BME280;57725;47.526;18.986;2023-03-25T00:13:53;98885.31;;;14.92;91.40
70314;BME280;57725;47.526;18.986;2023-03-25T00:16:18;98887.94;;;14.92;91.23
70314;BME280;57725;47.526;18.986;2023-03-25T00:18:47;98881.94;;;14.90;90.91
70314;BME280;57725;47.526;18.986;2023-03-25T00:21:18;98889.16;;;14.88;90.99
70314;BME280;57725;47.526;18.986;2023-03-25T00:23:43;98883.16;;;14.85;91.21
70314;BME280;57725;47.526;18.986;2023-03-25T00:26:09;98891.16;;;14.84;91.21
70314;BME280;57725;47.526;18.986;2023-03-25T00:28:47;98881.59;;;14.83;91.06
70314;BME280;57725;47.526;18.986;2023-03-25T00:31:13;98892.13;;;14.83;91.19
70314;BME280;57725;47.526;18.986;2023-03-25T00:33:41;98892.22;;;14.81;91.35
70314;BME280;57725;47.526;18.986;2023-03-25T00:36:07;98893.19;;;14.80;91.49
70314;BME280;57725;47.526;18.986;2023-03-25T00:38:35;98889.81;;;14.78;91.85
70314;BME280;57725;47.526;18.986;2023-03-25T00:43:54;98883.88;;;14.76;91.52
70314;BME280;57725;47.526;18.986;2023-03-25T00:46:22;98887.44;;;14.75;91.79
70314;BME280;57725;47.526;18.986;2023-03-25T00:48:50;98885.03;;;14.72;91.95
70314;BME280;57725;47.526;18.986;2023-03-25T00:51:16;98889.34;;;14.73;92.07
70314;BME280;57725;47.526;18.986;2023-03-25T00:53:46;98887.66;;;14.72;92.12
70314;BME280;57725;47.526;18.986;2023-03-25T00:56:12;98886.94;;;14.70;91.90
70314;BME280;57725;47.526;18.986;2023-03-25T00:58:42;98886.09;;;14.70;92.01
70314;BME280;57725;47.526;18.986;2023-03-25T01:01:14;98889.69;;;14.69;92.04
70314;BME280;57725;47.526;18.986;2023-03-25T01:03:48;98894.22;;;14.67;92.02
70314;BME280;57725;47.526;18.986;2023-03-25T01:06:25;98879.38;;;14.66;92.09
70314;BME280;57725;47.526;18.986;2023-03-25T01:08:59;98883.78;;;14.65;91.83
70314;BME280;57725;47.526;18.986;2023-03-25T01:11:28;98876.88;;;14.64;92.15
70314;BME280;57725;47.526;18.986;2023-03-25T01:13:56;98881.31;;;14.64;92.10
70314;BME280;57725;47.526;18.986;2023-03-25T01:16:30;98888.38;;;14.63;92.23
70314;BME280;57725;47.526;18.986;2023-03-25T01:19:01;98886.69;;;14.62;92.21
70314;BME280;57725;47.526;18.986;2023-03-25T01:21:29;98883.22;;;14.62;92.23
70314;BME280;57725;47.526;18.986;2023-03-25T01:24:00;98880.81;;;14.59;92.22
70314;BME280;57725;47.526;18.986;2023-03-25T01:26:29;98879.13;;;14.58;92.42
70314;BME280;57725;47.526;18.986;2023-03-25T01:28:57;98887.75;;;14.60;92.27
70314;BME280;57725;47.526;18.986;2023-03-25T01:31:25;98891.31;;;14.59;92.36
70314;BME280;57725;47.526;18.986;2023-03-25T01:33:54;98894.06;;;14.57;92.48
70314;BME280;57725;47.526;18.986;2023-03-25T01:36:21;98895.00;;;14.56;92.40
70314;BME280;57725;47.526;18.986;2023-03-25T01:38:51;98893.13;;;14.58;92.66
70314;BME280;57725;47.526;18.986;2023-03-25T01:41:16;98889.88;;;14.55;92.78
70314;BME280;57725;47.526;18.986;2023-03-25T01:44:00;98888.06;;;14.55;92.26
70314;BME280;57725;47.526;18.986;2023-03-25T01:46:25;98888.31;;;14.52;92.57
70314;BME280;57725;47.526;18.986;2023-03-25T01:48:51;98897.75;;;14.55;92.61
70314;BME280;57725;47.526;18.986;2023-03-25T01:51:20;98885.69;;;14.52;92.93
70314;BME280;57725;47.526;18.986;2023-03-25T01:53:49;98904.94;;;14.53;92.65
70314;BME280;57725;47.526;18.986;2023-03-25T01:56:20;98909.38;;;14.52;92.85
70314;BME280;57725;47.526;18.986;2023-03-25T01:58:47;98913.78;;;14.52;92.68
70314;BME280;57725;47.526;18.986;2023-03-25T02:01:16;98909.47;;;14.51;93.06
70314;BME280;57725;47.526;18.986;2023-03-25T02:03:43;98921.78;;;14.50;92.87
70314;BME280;57725;47.526;18.986;2023-03-25T02:06:16;98918.19;;;14.51;92.90
70314;BME280;57725;47.526;18.986;2023-03-25T02:08:49;98922.72;;;14.49;93.33
70314;BME280;57725;47.526;18.986;2023-03-25T02:11:19;98920.00;;;14.51;92.94
70314;BME280;57725;47.526;18.986;2023-03-25T02:13:44;98913.28;;;14.46;93.13
70314;BME280;57725;47.526;18.986;2023-03-25T02:19:03;98912.31;;;14.47;92.89
70314;BME280;57725;47.526;18.986;2023-03-25T02:27:40;98915.06;;;14.46;93.32
70314;BME280;57725;47.526;18.986;2023-03-25T02:36:59;98907.38;;;14.43;93.16
70314;BME280;57725;47.526;18.986;2023-03-25T02:39:40;98910.84;;;14.43;93.60
70314;BME280;57725;47.526;18.986;2023-03-25T02:42:19;98903.09;;;14.42;93.39
70314;BME280;57725;47.526;18.986;2023-03-25T02:47:21;98897.84;;;14.42;93.41
70314;BME280;57725;47.526;18.986;2023-03-25T02:49:53;98897.97;;;14.40;93.71
70314;BME280;57725;47.526;18.986;2023-03-25T02:52:30;98907.63;;;14.40;93.50
70314;BME280;57725;47.526;18.986;2023-03-25T02:54:59;98896.34;;;14.38;93.63
70314;BME280;57725;47.526;18.986;2023-03-25T02:57:30;98898.16;;;14.37;93.56
70314;BME280;57725;47.526;18.986;2023-03-25T03:00:05;98900.78;;;14.37;93.69
70314;BME280;57725;47.526;18.986;2023-03-25T03:02:43;98907.72;;;14.38;93.55
70314;BME280;57725;47.526;18.986;2023-03-25T03:05:44;98911.41;;;14.36;93.66
70314;BME280;57725;47.526;18.986;2023-03-25T03:19:43;98929.06;;;14.34;93.94
70314;BME280;57725;47.526;18.986;2023-03-25T03:25:29;98932.66;;;14.33;93.62
70314;BME280;57725;47.526;18.986;2023-03-25T03:30:47;98933.59;;;14.32;93.66
70314;BME280;57725;47.526;18.986;2023-03-25T03:35:51;98934.53;;;14.31;93.88
70314;BME280;57725;47.526;18.986;2023-03-25T03:38:24;98934.53;;;14.31;93.94
70314;BME280;57725;47.526;18.986;2023-03-25T03:40:56;98933.84;;;14.29;93.94
70314;BME280;57725;47.526;18.986;2023-03-25T03:43:29;98933.00;;;14.28;93.80
70314;BME280;57725;47.526;18.986;2023-03-25T03:46:05;98930.47;;;14.27;93.79
70314;BME280;57725;47.526;18.986;2023-03-25T03:48:37;98926.16;;;14.26;93.83
70314;BME280;57725;47.526;18.986;2023-03-25T03:51:15;98945.41;;;14.26;93.95
70314;BME280;57725;47.526;18.986;2023-03-25T03:53:56;98943.72;;;14.25;93.81
70314;BME280;57725;47.526;18.986;2023-03-25T03:56:37;98942.91;;;14.25;93.86
70314;BME280;57725;47.526;18.986;2023-03-25T03:59:14;98947.31;;;14.24;93.82
70314;BME280;57725;47.526;18.986;2023-03-25T04:01:50;98949.94;;;14.24;93.75
70314;BME280;57725;47.526;18.986;2023-03-25T04:04:24;98950.88;;;14.23;93.78
70314;BME280;57725;47.526;18.986;2023-03-25T04:09:27;98957.94;;;14.23;94.01
70314;BME280;57725;47.526;18.986;2023-03-25T04:12:07;98964.13;;;14.22;93.99
70314;BME280;57725;47.526;18.986;2023-03-25T04:14:36;98963.28;;;14.21;94.04
70314;BME280;57725;47.526;18.986;2023-03-25T04:17:07;98962.44;;;14.21;94.05
70314;BME280;57725;47.526;18.986;2023-03-25T04:19:32;98962.56;;;14.19;94.08
70314;BME280;57725;47.526;18.986;2023-03-25T04:22:00;98960.91;;;14.18;93.88
70314;BME280;57725;47.526;18.986;2023-03-25T04:24:30;98973.22;;;14.18;93.86
70314;BME280;57725;47.526;18.986;2023-03-25T04:26:57;98974.06;;;14.18;93.90
70314;BME280;57725;47.526;18.986;2023-03-25T04:29:33;98986.34;;;14.18;93.97
70314;BME280;57725;47.526;18.986;2023-03-25T04:32:08;98979.53;;;14.15;93.98
70314;BME280;57725;47.526;18.986;2023-03-25T04:34:33;98983.00;;;14.16;93.86
70314;BME280;57725;47.526;18.986;2023-03-25T04:36:59;98984.78;;;14.15;93.83
70314;BME280;57725;47.526;18.986;2023-03-25T04:39:26;98988.44;;;14.12;93.52
70314;BME280;57725;47.526;18.986;2023-03-25T04:41:53;98987.50;;;14.13;93.88
70314;BME280;57725;47.526;18.986;2023-03-25T04:44:21;98992.78;;;14.13;93.66
70314;BME280;57725;47.526;18.986;2023-03-25T04:46:50;98998.13;;;14.12;93.80
70314;BME280;57725;47.526;18.986;2023-03-25T04:49:21;98998.97;;;14.12;93.74
70314;BME280;57725;47.526;18.986;2023-03-25T04:51:48;99000.03;;;14.10;93.66
70314;BME280;57725;47.526;18.986;2023-03-25T04:54:18;99005.38;;;14.08;93.92
70314;BME280;57725;47.526;18.986;2023-03-25T04:56:44;99000.13;;;14.08;93.99
70314;BME280;57725;47.526;18.986;2023-03-25T04:59:11;98999.41;;;14.06;93.93
70314;BME280;57725;47.526;18.986;2023-03-25T05:01:38;99013.25;;;14.08;93.86
70314;BME280;57725;47.526;18.986;2023-03-25T05:04:09;99016.88;;;14.07;93.87
70314;BME280;57725;47.526;18.986;2023-03-25T05:06:47;99019.50;;;14.07;93.35
70314;BME280;57725;47.526;18.986;2023-03-25T05:09:19;99023.91;;;14.07;93.62
70314;BME280;57725;47.526;18.986;2023-03-25T05:11:49;99024.00;;;14.05;93.73
70314;BME280;57725;47.526;18.986;2023-03-25T05:14:17;99028.44;;;14.05;93.74
70314;BME280;57725;47.526;18.986;2023-03-25T05:16:46;99030.22;;;14.04;93.75
70314;BME280;57725;47.526;18.986;2023-03-25T05:19:16;99029.38;;;14.04;93.89
70314;BME280;57725;47.526;18.986;2023-03-25T05:21:43;99039.16;;;14.02;93.75
70314;BME280;57725;47.526;18.986;2023-03-25T05:24:12;99033.06;;;14.01;93.77
70314;BME280;57725;47.526;18.986;2023-03-25T05:26:39;99030.41;;;14.01;93.64
70314;BME280;57725;47.526;18.986;2023-03-25T05:29:13;99030.41;;;14.01;93.59
70314;BME280;57725;47.526;18.986;2023-03-25T05:31:42;99029.69;;;13.99;93.61
70314;BME280;57725;47.526;18.986;2023-03-25T05:34:09;99028.84;;;13.99;93.96
70314;BME280;57725;47.526;18.986;2023-03-25T05:36:34;99028.84;;;13.99;93.87
70314;BME280;57725;47.526;18.986;2023-03-25T05:39:02;99036.00;;;13.97;93.52
70314;BME280;57725;47.526;18.986;2023-03-25T05:41:30;99042.94;;;13.98;93.86
70314;BME280;57725;47.526;18.986;2023-03-25T05:44:07;99036.00;;;13.97;93.96
70314;BME280;57725;47.526;18.986;2023-03-25T05:46:33;99036.13;;;13.95;93.89
70314;BME280;57725;47.526;18.986;2023-03-25T05:49:01;99037.06;;;13.94;93.74
70314;BME280;57725;47.526;18.986;2023-03-25T05:51:31;99044.94;;;13.94;93.84
70314;BME280;57725;47.526;18.986;2023-03-25T05:53:58;99048.53;;;13.93;93.77
70314;BME280;57725;47.526;18.986;2023-03-25T05:56:23;99046.00;;;13.92;93.75
70314;BME280;57725;47.526;18.986;2023-03-25T05:58:53;99044.22;;;13.92;93.68
70314;BME280;57725;47.526;18.986;2023-03-25T06:01:20;99041.59;;;13.92;93.84
70314;BME280;57725;47.526;18.986;2023-03-25T06:03:47;99046.94;;;13.91;93.79
70314;BME280;57725;47.526;18.986;2023-03-25T06:06:14;99046.94;;;13.91;94.09
70314;BME280;57725;47.526;18.986;2023-03-25T06:08:46;99046.94;;;13.91;94.02
70314;BME280;57725;47.526;18.986;2023-03-25T06:11:15;99049.66;;;13.89;93.86
70314;BME280;57725;47.526;18.986;2023-03-25T06:13:44;99054.94;;;13.89;93.72
70314;BME280;57725;47.526;18.986;2023-03-25T06:16:15;99057.56;;;13.89;93.83
70314;BME280;57725;47.526;18.986;2023-03-25T06:18:43;99053.25;;;13.88;94.08
70314;BME280;57725;47.526;18.986;2023-03-25T06:21:09;99054.19;;;13.87;94.07
70314;BME280;57725;47.526;18.986;2023-03-25T06:23:35;99052.50;;;13.86;93.94
70314;BME280;57725;47.526;18.986;2023-03-25T06:26:03;99049.03;;;13.86;93.84
70314;BME280;57725;47.526;18.986;2023-03-25T06:28:31;99049.88;;;13.86;94.02
70314;BME280;57725;47.526;18.986;2023-03-25T06:30:57;99047.34;;;13.85;94.05
70314;BME280;57725;47.526;18.986;2023-03-25T06:33:27;99049.16;;;13.84;94.22
70314;BME280;57725;47.526;18.986;2023-03-25T06:35:55;99051.91;;;13.83;93.99
70314;BME280;57725;47.526;18.986;2023-03-25T06:38:21;99060.63;;;13.83;94.12
70314;BME280;57725;47.526;18.986;2023-03-25T06:40:48;99053.69;;;13.82;94.07
70314;BME280;57725;47.526;18.986;2023-03-25T06:43:16;99061.56;;;13.82;94.08
70314;BME280;57725;47.526;18.986;2023-03-25T06:45:44;99065.97;;;13.82;94.13
70314;BME280;57725;47.526;18.986;2023-03-25T06:48:12;99075.63;;;13.81;94.23
70314;BME280;57725;47.526;18.986;2023-03-25T06:50:40;99080.06;;;13.81;94.21
70314;BME280;57725;47.526;18.986;2023-03-25T06:53:05;99076.69;;;13.78;94.06
70314;BME280;57725;47.526;18.986;2023-03-25T06:55:30;99079.31;;;13.78;94.16
70314;BME280;57725;47.526;18.986;2023-03-25T06:57:56;99070.59;;;13.78;94.08
70314;BME280;57725;47.526;18.986;2023-03-25T07:00:24;99074.06;;;13.78;94.05
70314;BME280;57725;47.526;18.986;2023-03-25T07:02:53;99079.41;;;13.77;93.99
70314;BME280;57725;47.526;18.986;2023-03-25T07:05:23;99080.34;;;13.76;93.94
70314;BME280;57725;47.526;18.986;2023-03-25T07:07:48;99080.34;;;13.76;94.11
70314;BME280;57725;47.526;18.986;2023-03-25T07:10:14;99087.38;;;13.75;94.10
70314;BME280;57725;47.526;18.986;2023-03-25T07:12:40;99084.75;;;13.75;94.13
70314;BME280;57725;47.526;18.986;2023-03-25T07:15:06;99083.19;;;13.73;94.00
70314;BME280;57725;47.526;18.986;2023-03-25T07:17:38;99082.13;;;13.75;94.23
70314;BME280;57725;47.526;18.986;2023-03-25T07:20:04;99086.66;;;13.73;94.07
70314;BME280;57725;47.526;18.986;2023-03-25T07:22:30;99078.16;;;13.70;94.01
70314;BME280;57725;47.526;18.986;2023-03-25T07:24:58;99091.91;;;13.73;94.28
70314;BME280;57725;47.526;18.986;2023-03-25T07:27:24;99086.78;;;13.72;94.15
70314;BME280;57725;47.526;18.986;2023-03-25T07:29:54;99082.47;;;13.71;94.10
70314;BME280;57725;47.526;18.986;2023-03-25T07:32:22;99089.41;;;13.72;94.43
70314;BME280;57725;47.526;18.986;2023-03-25T07:34:50;99087.72;;;13.71;94.22
70314;BME280;57725;47.526;18.986;2023-03-25T07:37:20;99093.81;;;13.71;94.43
70314;BME280;57725;47.526;18.986;2023-03-25T07:39:50;99097.38;;;13.70;94.36
70314;BME280;57725;47.526;18.986;2023-03-25T07:42:18;99090.44;;;13.69;94.31
70314;BME280;57725;47.526;18.986;2023-03-25T07:44:48;99096.53;;;13.70;94.38
70314;BME280;57725;47.526;18.986;2023-03-25T07:47:16;99090.44;;;13.69;94.30
70314;BME280;57725;47.526;18.986;2023-03-25T07:49:41;99089.59;;;13.69;94.46
70314;BME280;57725;47.526;18.986;2023-03-25T07:52:07;99101.06;;;13.68;94.46
70314;BME280;57725;47.526;18.986;2023-03-25T07:54:32;99093.06;;;13.69;94.34
70314;BME280;57725;47.526;18.986;2023-03-25T07:56:57;99084.44;;;13.67;94.58
70314;BME280;57725;47.526;18.986;2023-03-25T07:59:26;99091.41;;;13.68;94.59
70314;BME280;57725;47.526;18.986;2023-03-25T08:01:54;99077.41;;;13.68;94.58
70314;BME280;57725;47.526;18.986;2023-03-25T08:04:25;99076.66;;;13.66;94.52
70314;BME280;57725;47.526;18.986;2023-03-25T08:06:53;99089.72;;;13.67;94.41
70314;BME280;57725;47.526;18.986;2023-03-25T08:09:18;99088.03;;;13.66;94.35
70314;BME280;57725;47.526;18.986;2023-03-25T08:11:43;99094.13;;;13.67;94.27
70314;BME280;57725;47.526;18.986;2023-03-25T08:14:10;99096.66;;;13.68;94.60
70314;BME280;57725;47.526;18.986;2023-03-25T08:16:35;99095.91;;;13.66;94.58
70314;BME280;57725;47.526;18.986;2023-03-25T08:19:01;99089.72;;;13.67;94.26
70314;BME280;57725;47.526;18.986;2023-03-25T08:21:26;99096.75;;;13.67;94.79
70314;BME280;57725;47.526;18.986;2023-03-25T08:23:54;99086.25;;;13.67;94.69
70314;BME280;57725;47.526;18.986;2023-03-25T08:26:28;99081.94;;;13.66;94.41
70314;BME280;57725;47.526;18.986;2023-03-25T08:28:57;99093.28;;;13.66;94.44
70314;BME280;57725;47.526;18.986;2023-03-25T08:31:23;99097.69;;;13.66;94.41
70314;BME280;57725;47.526;18.986;2023-03-25T08:33:49;99095.91;;;13.66;94.57
70314;BME280;57725;47.526;18.986;2023-03-25T08:36:19;99080.97;;;13.67;94.47
70314;BME280;57725;47.526;18.986;2023-03-25T08:38:49;99094.22;;;13.65;94.70
70314;BME280;57725;47.526;18.986;2023-03-25T08:41:15;99091.50;;;13.67;94.87
70314;BME280;57725;47.526;18.986;2023-03-25T08:43:43;99087.28;;;13.64;94.52
70314;BME280;57725;47.526;18.986;2023-03-25T08:46:11;99083.63;;;13.67;94.49
70314;BME280;57725;47.526;18.986;2023-03-25T08:48:37;99076.78;;;13.64;94.52
70314;BME280;57725;47.526;18.986;2023-03-25T08:51:02;99085.41;;;13.66;94.66
70314;BME280;57725;47.526;18.986;2023-03-25T08:53:31;99076.66;;;13.66;94.70
70314;BME280;57725;47.526;18.986;2023-03-25T08:55:59;99078.34;;;13.67;94.76
70314;BME280;57725;47.526;18.986;2023-03-25T08:58:25;99068.78;;;13.66;94.33
70314;BME280;57725;47.526;18.986;2023-03-25T09:00:54;99068.78;;;13.66;94.58
70314;BME280;57725;47.526;18.986;2023-03-25T09:03:26;99071.41;;;13.66;94.55
70314;BME280;57725;47.526;18.986;2023-03-25T09:05:53;99070.47;;;13.67;94.53
70314;BME280;57725;47.526;18.986;2023-03-25T09:08:24;99067.84;;;13.67;94.48
70314;BME280;57725;47.526;18.986;2023-03-25T09:10:53;99069.63;;;13.66;94.66
70314;BME280;57725;47.526;18.986;2023-03-25T09:13:19;99069.72;;;13.65;94.60
70314;BME280;57725;47.526;18.986;2023-03-25T09:15:47;99079.31;;;13.66;94.77
70314;BME280;57725;47.526;18.986;2023-03-25T09:18:12;99084.44;;;13.67;94.78
70314;BME280;57725;47.526;18.986;2023-03-25T09:20:40;99071.53;;;13.64;94.79
70314;BME280;57725;47.526;18.986;2023-03-25T09:23:11;99083.63;;;13.67;94.65
70314;BME280;57725;47.526;18.986;2023-03-25T09:25:37;99074.06;;;13.66;94.59
70314;BME280;57725;47.526;18.986;2023-03-25T09:28:05;99079.19;;;13.67;94.63
70314;BME280;57725;47.526;18.986;2023-03-25T09:30:32;99080.88;;;13.68;94.63
70314;BME280;57725;47.526;18.986;2023-03-25T09:32:59;99072.16;;;13.68;94.90
70314;BME280;57725;47.526;18.986;2023-03-25T09:35:25;99081.81;;;13.67;94.99
70314;BME280;57725;47.526;18.986;2023-03-25T09:37:50;99072.06;;;13.69;94.56
70314;BME280;57725;47.526;18.986;2023-03-25T09:40:17;99074.69;;;13.69;94.54
70314;BME280;57725;47.526;18.986;2023-03-25T09:43:02;99070.28;;;13.70;94.62
70314;BME280;57725;47.526;18.986;2023-03-25T09:45:42;99069.44;;;13.69;94.74
70314;BME280;57725;47.526;18.986;2023-03-25T09:51:05;99085.94;;;13.71;94.60
70314;BME280;57725;47.526;18.986;2023-03-25T09:53:36;99086.88;;;13.70;94.71
70314;BME280;57725;47.526;18.986;2023-03-25T09:56:14;99086.03;;;13.70;94.67
70314;BME280;57725;47.526;18.986;2023-03-25T09:59:17;99084.25;;;13.70;94.48
70314;BME280;57725;47.526;18.986;2023-03-25T10:01:57;99087.72;;;13.71;94.50
70314;BME280;57725;47.526;18.986;2023-03-25T10:04:48;99090.34;;;13.71;94.70
70314;BME280;57725;47.526;18.986;2023-03-25T10:16:01;99089.19;;;13.75;94.66
70314;BME280;57725;47.526;18.986;2023-03-25T10:21:24;99086.53;;;13.75;94.57
70314;BME280;57725;47.526;18.986;2023-03-25T10:26:30;99081.28;;;13.75;94.56
70314;BME280;57725;47.526;18.986;2023-03-25T10:29:09;99094.31;;;13.76;94.59
70314;BME280;57725;47.526;18.986;2023-03-25T10:31:44;99090.84;;;13.76;94.71
70314;BME280;57725;47.526;18.986;2023-03-25T10:34:17;99091.69;;;13.76;94.82
70314;BME280;57725;47.526;18.986;2023-03-25T10:36:50;99093.38;;;13.77;94.78
70314;BME280;57725;47.526;18.986;2023-03-25T10:39:22;99089.91;;;13.77;94.75
70314;BME280;57725;47.526;18.986;2023-03-25T10:42:30;99085.50;;;13.77;94.75
70314;BME280;57725;47.526;18.986;2023-03-25T10:44:59;99083.81;;;13.76;94.72
70314;BME280;57725;47.526;18.986;2023-03-25T10:47:30;99087.19;;;13.78;94.75
70314;BME280;57725;47.526;18.986;2023-03-25T10:50:04;99077.63;;;13.77;94.70
70314;BME280;57725;47.526;18.986;2023-03-25T10:52:33;99080.16;;;13.79;94.35
70314;BME280;57725;47.526;18.986;2023-03-25T10:55:01;99081.00;;;13.80;94.37
70314;BME280;57725;47.526;18.986;2023-03-25T10:57:28;99093.19;;;13.81;94.36
70314;BME280;57725;47.526;18.986;2023-03-25T11:00:06;99094.88;;;13.82;94.11
70314;BME280;57725;47.526;18.986;2023-03-25T11:02:44;99092.25;;;13.82;94.18
70314;BME280;57725;47.526;18.986;2023-03-25T11:05:11;99093.19;;;13.81;94.05
70314;BME280;57725;47.526;18.986;2023-03-25T11:07:41;99098.25;;;13.84;94.20
70314;BME280;57725;47.526;18.986;2023-03-25T11:10:10;99101.72;;;13.84;94.32
70314;BME280;57725;47.526;18.986;2023-03-25T11:12:42;99088.69;;;13.83;94.27
70314;BME280;57725;47.526;18.986;2023-03-25T11:15:23;99100.88;;;13.84;94.38
70314;BME280;57725;47.526;18.986;2023-03-25T11:20:39;99103.38;;;13.85;94.11
70314;BME280;57725;47.526;18.986;2023-03-25T11:23:23;99092.84;;;13.85;94.06
70314;BME280;57725;47.526;18.986;2023-03-25T11:25:50;99093.69;;;13.86;94.10
70314;BME280;57725;47.526;18.986;2023-03-25T11:28:19;99088.44;;;13.86;94.17
70314;BME280;57725;47.526;18.986;2023-03-25T11:31:11;99105.88;;;13.87;94.12
70314;BME280;57725;47.526;18.986;2023-03-25T11:33:41;99108.50;;;13.87;94.23
70314;BME280;57725;47.526;18.986;2023-03-25T11:36:28;99101.56;;;13.86;94.14
70314;BME280;57725;47.526;18.986;2023-03-25T11:39:00;99101.47;;;13.87;94.18
70314;BME280;57725;47.526;18.986;2023-03-25T11:41:33;99104.84;;;13.89;94.06
70314;BME280;57725;47.526;18.986;2023-03-25T11:44:04;99109.47;;;13.86;94.22
70314;BME280;57725;47.526;18.986;2023-03-25T11:46:31;99121.56;;;13.88;94.16
70314;BME280;57725;47.526;18.986;2023-03-25T11:49:07;99114.41;;;13.90;94.04
70314;BME280;57725;47.526;18.986;2023-03-25T11:51:33;99108.41;;;13.88;94.27
70314;BME280;57725;47.526;18.986;2023-03-25T11:54:14;99105.78;;;13.88;93.97
70314;BME280;57725;47.526;18.986;2023-03-25T11:56:43;99107.38;;;13.91;93.93
70314;BME280;57725;47.526;18.986;2023-03-25T11:59:26;99087.19;;;13.91;93.82
70314;BME280;57725;47.526;18.986;2023-03-25T12:02:14;99088.03;;;13.92;94.09
70314;BME280;57725;47.526;18.986;2023-03-25T12:07:45;99095.81;;;13.93;93.68
70314;BME280;57725;47.526;18.986;2023-03-25T12:10:43;99104.53;;;13.94;93.72
70314;BME280;57725;47.526;18.986;2023-03-25T12:16:18;99100.13;;;13.94;93.66
70314;BME280;57725;47.526;18.986;2023-03-25T12:32:52;99063.09;;;13.97;93.56
70314;BME280;57725;47.526;18.986;2023-03-25T12:39:04;99053.34;;;13.99;93.33
70314;BME280;57725;47.526;18.986;2023-03-25T12:43:59;99058.50;;;14.01;93.45
70314;BME280;57725;47.526;18.986;2023-03-25T13:05:49;99041.56;;;14.05;93.18
70314;BME280;57725;47.526;18.986;2023-03-25T13:11:01;99026.66;;;14.05;93.36
70314;BME280;57725;47.526;18.986;2023-03-25T13:13:32;99036.41;;;14.03;93.19
70314;BME280;57725;47.526;18.986;2023-03-25T13:16:07;99036.22;;;14.06;92.98
70314;BME280;57725;47.526;18.986;2023-03-25T13:18:44;99024.75;;;14.07;93.23
70314;BME280;57725;47.526;18.986;2023-03-25T13:23:42;99029.03;;;14.08;92.91
70314;BME280;57725;47.526;18.986;2023-03-25T13:26:11;99026.41;;;14.08;92.67
70314;BME280;57725;47.526;18.986;2023-03-25T13:28:47;99030.81;;;14.08;92.83
70314;BME280;57725;47.526;18.986;2023-03-25T13:31:41;99029.88;;;14.09;93.00
70314;BME280;57725;47.526;18.986;2023-03-25T13:34:39;99032.41;;;14.10;92.70
70314;BME280;57725;47.526;18.986;2023-03-25T13:39:53;99027.97;;;14.11;92.67
70314;BME280;57725;47.526;18.986;2023-03-25T13:42:38;99027.88;;;14.12;92.78
70314;BME280;57725;47.526;18.986;2023-03-25T13:45:20;99035.88;;;14.11;92.80
70314;BME280;57725;47.526;18.986;2023-03-25T13:47:53;99025.25;;;14.12;92.55
70314;BME280;57725;47.526;18.986;2023-03-25T13:50:28;99043.53;;;14.14;92.70
70314;BME280;57725;47.526;18.986;2023-03-25T13:52:59;99022.53;;;14.14;92.67
70314;BME280;57725;47.526;18.986;2023-03-25T13:55:39;99026.00;;;14.14;92.27
70314;BME280;57725;47.526;18.986;2023-03-25T14:11:26;99031.03;;;14.18;92.32
70314;BME280;57725;47.526;18.986;2023-03-25T14:13:59;99033.78;;;14.16;92.51
70314;BME280;57725;47.526;18.986;2023-03-25T14:16:33;99042.41;;;14.18;92.65
70314;BME280;57725;47.526;18.986;2023-03-25T14:19:07;99032.72;;;14.19;92.93
70314;BME280;57725;47.526;18.986;2023-03-25T14:26:50;99035.22;;;14.20;92.53
70314;BME280;57725;47.526;18.986;2023-03-25T14:32:01;99022.06;;;14.20;92.61
70314;BME280;57725;47.526;18.986;2023-03-25T14:34:27;99021.22;;;14.20;92.46
70314;BME280;57725;47.526;18.986;2023-03-25T14:44:27;99022.81;;;14.22;92.29
70314;BME280;57725;47.526;18.986;2023-03-25T14:52:50;99021.13;;;14.21;92.37
70314;BME280;57725;47.526;18.986;2023-03-25T14:55:30;99020.91;;;14.24;92.46
70314;BME280;57725;47.526;18.986;2023-03-25T14:58:22;99010.41;;;14.24;92.61
70314;BME280;57725;47.526;18.986;2023-03-25T15:01:03;99019.13;;;14.25;92.35
70314;BME280;57725;47.526;18.986;2023-03-25T15:03:35;99025.34;;;14.24;92.41
70314;BME280;57725;47.526;18.986;2023-03-25T15:06:09;99021.75;;;14.25;92.37
70314;BME280;57725;47.526;18.986;2023-03-25T15:08:37;99033.00;;;14.27;92.68
70314;BME280;57725;47.526;18.986;2023-03-25T15:11:08;99022.50;;;14.27;92.67
70314;BME280;57725;47.526;18.986;2023-03-25T15:13:41;99027.75;;;14.27;92.55
70314;BME280;57725;47.526;18.986;2023-03-25T15:16:36;99030.38;;;14.27;92.41
70314;BME280;57725;47.526;18.986;2023-03-25T15:19:10;99033.00;;;14.27;92.69
70314;BME280;57725;47.526;18.986;2023-03-25T15:24:29;99039.09;;;14.27;92.53
70314;BME280;57725;47.526;18.986;2023-03-25T15:26:58;99033.84;;;14.27;92.77
70314;BME280;57725;47.526;18.986;2023-03-25T15:32:32;99027.66;;;14.28;92.64
70314;BME280;57725;47.526;18.986;2023-03-25T15:52:13;99025.84;;;14.29;92.56
70314;BME280;57725;47.526;18.986;2023-03-25T15:54:47;99019.75;;;14.28;92.80
70314;BME280;57725;47.526;18.986;2023-03-25T15:57:25;99023.22;;;14.29;92.68
70314;BME280;57725;47.526;18.986;2023-03-25T16:00:07;99014.41;;;14.30;92.72
70314;BME280;57725;47.526;18.986;2023-03-25T16:05:22;99020.72;;;14.27;92.60
70314;BME280;57725;47.526;18.986;2023-03-25T16:07:51;99022.28;;;14.30;92.79